sensor_id;sensor_type;location;lat;lon;timestamp;P1;durP1;ratioP1;P2;durP2;ratioP2
10201;SDS011;5143;42.584;23.164;2024-03-25T00:01:22;0.70;;;0.20;;
10201;SDS011;5143;42.584;23.164;2024-03-25T00:03:48;0.60;;;0.10;;
10201;SDS011;5143;42.584;23.164;2024-03-25T00:06:14;0.80;;;0.30;;
10201;SDS011;5143;42.584;23.164;2024-03-25T00:08:40;0.60;;;0.17;;
10201;SDS011;5143;42.584;23.164;2024-03-25T00:11:07;0.60;;;0.20;;
10201;SDS011;5143;42.584;23.164;2024-03-25T00:13:32;0.60;;;0.10;;
10201;SDS011;5143;42.584;23.164;2024-03-25T00:16:00;0.60;;;0.00;;
10201;SDS011;5143;42.584;23.164;2024-03-25T00:18:25;0.60;;;0.07;;
10201;SDS011;5143;42.584;23.164;2024-03-25T00:20:52;2.20;;;0.00;;
10201;SDS011;5143;42.584;23.164;2024-03-25T00:23:17;0.60;;;0.00;;
10201;SDS011;5143;42.584;23.164;2024-03-25T00:25:44;0.60;;;0.00;;
10201;SDS011;5143;42.584;23.164;2024-03-25T00:28:09;1.20;;;0.47;;
10201;SDS011;5143;42.584;23.164;2024-03-25T00:30:36;3.73;;;1.93;;
10201;SDS011;5143;42.584;23.164;2024-03-25T00:33:03;3.23;;;1.60;;
10201;SDS011;5143;42.584;23.164;2024-03-25T00:35:31;2.33;;;1.30;;
10201;SDS011;5143;42.584;23.164;2024-03-25T00:37:57;2.23;;;1.17;;
10201;SDS011;5143;42.584;23.164;2024-03-25T00:40:24;1.10;;;0.50;;
10201;SDS011;5143;42.584;23.164;2024-03-25T00:42:49;0.77;;;0.27;;
10201;SDS011;5143;42.584;23.164;2024-03-25T00:45:16;0.90;;;0.40;;
10201;SDS011;5143;42.584;23.164;2024-03-25T00:47:41;1.23;;;0.53;;
10201;SDS011;5143;42.584;23.164;2024-03-25T00:50:09;1.10;;;0.30;;
10201;SDS011;5143;42.584;23.164;2024-03-25T00:52:35;1.57;;;0.70;;
10201;SDS011;5143;42.584;23.164;2024-03-25T00:55:01;1.60;;;1.10;;
10201;SDS011;5143;42.584;23.164;2024-03-25T00:57:27;2.67;;;1.30;;
10201;SDS011;5143;42.584;23.164;2024-03-25T00:59:54;3.63;;;1.83;;
10201;SDS011;5143;42.584;23.164;2024-03-25T01:02:20;2.43;;;1.37;;
10201;SDS011;5143;42.584;23.164;2024-03-25T01:04:46;3.70;;;1.53;;
10201;SDS011;5143;42.584;23.164;2024-03-25T01:07:13;2.63;;;1.30;;
10201;SDS011;5143;42.584;23.164;2024-03-25T01:09:39;2.53;;;1.30;;
10201;SDS011;5143;42.584;23.164;2024-03-25T01:12:05;2.17;;;1.53;;
10201;SDS011;5143;42.584;23.164;2024-03-25T01:14:32;3.53;;;1.50;;
10201;SDS011;5143;42.584;23.164;2024-03-25T01:16:57;2.70;;;1.70;;
10201;SDS011;5143;42.584;23.164;2024-03-25T01:19:43;4.10;;;1.80;;
10201;SDS011;5143;42.584;23.164;2024-03-25T01:22:10;4.87;;;1.80;;
10201;SDS011;5143;42.584;23.164;2024-03-25T01:24:37;6.10;;;2.27;;
10201;SDS011;5143;42.584;23.164;2024-03-25T01:27:03;3.93;;;1.90;;
10201;SDS011;5143;42.584;23.164;2024-03-25T01:29:29;2.87;;;1.40;;
10201;SDS011;5143;42.584;23.164;2024-03-25T01:31:55;2.33;;;1.50;;
10201;SDS011;5143;42.584;23.164;2024-03-25T01:34:23;3.17;;;1.50;;
10201;SDS011;5143;42.584;23.164;2024-03-25T01:36:50;2.13;;;1.33;;
10201;SDS011;5143;42.584;23.164;2024-03-25T01:39:16;2.33;;;1.50;;
10201;SDS011;5143;42.584;23.164;2024-03-25T01:41:44;1.90;;;1.40;;
10201;SDS011;5143;42.584;23.164;2024-03-25T01:44:10;1.60;;;1.30;;
10201;SDS011;5143;42.584;23.164;2024-03-25T01:46:36;1.53;;;1.17;;
10201;SDS011;5143;42.584;23.164;2024-03-25T01:49:02;1.80;;;1.50;;
10201;SDS011;5143;42.584;23.164;2024-03-25T01:51:29;2.33;;;1.40;;
10201;SDS011;5143;42.584;23.164;2024-03-25T01:53:55;1.60;;;1.23;;
10201;SDS011;5143;42.584;23.164;2024-03-25T01:56:22;2.50;;;1.77;;
10201;SDS011;5143;42.584;23.164;2024-03-25T01:58:50;2.93;;;1.93;;
10201;SDS011;5143;42.584;23.164;2024-03-25T02:01:16;2.83;;;1.73;;
10201;SDS011;5143;42.584;23.164;2024-03-25T02:03:43;5.20;;;2.73;;
10201;SDS011;5143;42.584;23.164;2024-03-25T02:06:10;1.77;;;1.20;;
10201;SDS011;5143;42.584;23.164;2024-03-25T02:08:37;3.47;;;2.30;;
10201;SDS011;5143;42.584;23.164;2024-03-25T02:11:04;4.97;;;2.60;;
10201;SDS011;5143;42.584;23.164;2024-03-25T02:13:30;3.40;;;2.33;;
10201;SDS011;5143;42.584;23.164;2024-03-25T02:15:58;3.23;;;2.17;;
10201;SDS011;5143;42.584;23.164;2024-03-25T02:18:24;3.43;;;2.00;;
10201;SDS011;5143;42.584;23.164;2024-03-25T02:20:50;2.20;;;1.50;;
10201;SDS011;5143;42.584;23.164;2024-03-25T02:23:16;3.30;;;2.50;;
10201;SDS011;5143;42.584;23.164;2024-03-25T02:25:42;6.63;;;5.10;;
10201;SDS011;5143;42.584;23.164;2024-03-25T02:28:09;4.77;;;3.00;;
10201;SDS011;5143;42.584;23.164;2024-03-25T02:30:36;2.60;;;2.10;;
10201;SDS011;5143;42.584;23.164;2024-03-25T02:33:01;3.10;;;2.20;;
10201;SDS011;5143;42.584;23.164;2024-03-25T02:35:28;2.60;;;2.00;;
10201;SDS011;5143;42.584;23.164;2024-03-25T02:37:53;3.27;;;2.73;;
10201;SDS011;5143;42.584;23.164;2024-03-25T02:40:20;2.73;;;1.97;;
10201;SDS011;5143;42.584;23.164;2024-03-25T02:42:46;3.23;;;2.20;;
10201;SDS011;5143;42.584;23.164;2024-03-25T02:45:14;1.93;;;1.50;;
10201;SDS011;5143;42.584;23.164;2024-03-25T02:47:40;1.70;;;1.50;;
10201;SDS011;5143;42.584;23.164;2024-03-25T02:50:07;1.87;;;1.30;;
10201;SDS011;5143;42.584;23.164;2024-03-25T02:52:32;2.10;;;1.57;;
10201;SDS011;5143;42.584;23.164;2024-03-25T02:54:58;2.20;;;1.67;;
10201;SDS011;5143;42.584;23.164;2024-03-25T02:57:24;2.60;;;1.80;;
10201;SDS011;5143;42.584;23.164;2024-03-25T02:59:50;2.70;;;1.90;;
10201;SDS011;5143;42.584;23.164;2024-03-25T03:02:17;2.07;;;1.57;;
10201;SDS011;5143;42.584;23.164;2024-03-25T03:04:44;2.70;;;2.00;;
10201;SDS011;5143;42.584;23.164;2024-03-25T03:07:09;2.60;;;1.93;;
10201;SDS011;5143;42.584;23.164;2024-03-25T03:09:36;2.87;;;2.57;;
10201;SDS011;5143;42.584;23.164;2024-03-25T03:12:01;2.70;;;2.00;;
10201;SDS011;5143;42.584;23.164;2024-03-25T03:14:28;2.10;;;1.90;;
10201;SDS011;5143;42.584;23.164;2024-03-25T03:16:53;2.70;;;2.10;;
10201;SDS011;5143;42.584;23.164;2024-03-25T03:19:24;4.40;;;2.10;;
10201;SDS011;5143;42.584;23.164;2024-03-25T03:21:50;2.97;;;2.60;;
10201;SDS011;5143;42.584;23.164;2024-03-25T03:24:16;2.73;;;2.17;;
10201;SDS011;5143;42.584;23.164;2024-03-25T03:26:41;2.80;;;2.47;;
10201;SDS011;5143;42.584;23.164;2024-03-25T03:29:08;3.13;;;2.50;;
10201;SDS011;5143;42.584;23.164;2024-03-25T03:31:33;3.63;;;2.33;;
10201;SDS011;5143;42.584;23.164;2024-03-25T03:34:00;3.27;;;2.40;;
10201;SDS011;5143;42.584;23.164;2024-03-25T03:36:27;10.03;;;5.63;;
10201;SDS011;5143;42.584;23.164;2024-03-25T03:38:53;4.10;;;2.47;;
10201;SDS011;5143;42.584;23.164;2024-03-25T03:41:19;5.43;;;3.60;;
10201;SDS011;5143;42.584;23.164;2024-03-25T03:43:46;5.57;;;3.83;;
10201;SDS011;5143;42.584;23.164;2024-03-25T03:46:11;4.83;;;3.40;;
10201;SDS011;5143;42.584;23.164;2024-03-25T03:48:38;5.83;;;3.90;;
10201;SDS011;5143;42.584;23.164;2024-03-25T03:51:03;4.27;;;3.00;;
10201;SDS011;5143;42.584;23.164;2024-03-25T03:53:31;2.43;;;1.57;;
10201;SDS011;5143;42.584;23.164;2024-03-25T03:55:57;2.60;;;1.63;;
10201;SDS011;5143;42.584;23.164;2024-03-25T03:58:24;2.77;;;2.10;;
10201;SDS011;5143;42.584;23.164;2024-03-25T04:00:50;3.73;;;2.70;;
10201;SDS011;5143;42.584;23.164;2024-03-25T04:03:16;1.63;;;1.27;;
10201;SDS011;5143;42.584;23.164;2024-03-25T04:05:42;3.30;;;2.10;;
10201;SDS011;5143;42.584;23.164;2024-03-25T04:08:08;5.27;;;1.43;;
10201;SDS011;5143;42.584;23.164;2024-03-25T04:10:35;1.70;;;1.30;;
10201;SDS011;5143;42.584;23.164;2024-03-25T04:13:02;2.87;;;1.50;;
10201;SDS011;5143;42.584;23.164;2024-03-25T04:15:27;1.47;;;1.17;;
10201;SDS011;5143;42.584;23.164;2024-03-25T04:17:54;2.03;;;1.20;;
10201;SDS011;5143;42.584;23.164;2024-03-25T04:20:19;2.60;;;1.30;;
10201;SDS011;5143;42.584;23.164;2024-03-25T04:22:46;1.93;;;1.50;;
10201;SDS011;5143;42.584;23.164;2024-03-25T04:25:12;2.00;;;1.50;;
10201;SDS011;5143;42.584;23.164;2024-03-25T04:27:40;1.83;;;1.40;;
10201;SDS011;5143;42.584;23.164;2024-03-25T04:30:11;3.30;;;1.80;;
10201;SDS011;5143;42.584;23.164;2024-03-25T04:32:37;1.93;;;1.37;;
10201;SDS011;5143;42.584;23.164;2024-03-25T04:35:04;2.47;;;1.90;;
10201;SDS011;5143;42.584;23.164;2024-03-25T04:37:31;4.90;;;3.83;;
10201;SDS011;5143;42.584;23.164;2024-03-25T04:40:00;2.87;;;1.90;;
10201;SDS011;5143;42.584;23.164;2024-03-25T04:42:28;2.70;;;1.97;;
10201;SDS011;5143;42.584;23.164;2024-03-25T04:44:55;2.60;;;2.23;;
10201;SDS011;5143;42.584;23.164;2024-03-25T04:47:20;2.53;;;1.93;;
10201;SDS011;5143;42.584;23.164;2024-03-25T04:49:49;3.63;;;2.40;;
10201;SDS011;5143;42.584;23.164;2024-03-25T04:52:14;3.00;;;2.50;;
10201;SDS011;5143;42.584;23.164;2024-03-25T04:54:40;3.20;;;1.93;;
10201;SDS011;5143;42.584;23.164;2024-03-25T04:57:06;2.07;;;1.50;;
10201;SDS011;5143;42.584;23.164;2024-03-25T04:59:34;4.03;;;2.20;;
10201;SDS011;5143;42.584;23.164;2024-03-25T05:02:01;2.60;;;2.30;;
10201;SDS011;5143;42.584;23.164;2024-03-25T05:04:26;4.97;;;3.30;;
10201;SDS011;5143;42.584;23.164;2024-03-25T05:06:52;5.63;;;3.70;;
10201;SDS011;5143;42.584;23.164;2024-03-25T05:09:17;4.83;;;3.37;;
10201;SDS011;5143;42.584;23.164;2024-03-25T05:11:43;7.53;;;3.73;;
10201;SDS011;5143;42.584;23.164;2024-03-25T05:14:08;6.60;;;4.03;;
10201;SDS011;5143;42.584;23.164;2024-03-25T05:16:35;7.50;;;3.97;;
10201;SDS011;5143;42.584;23.164;2024-03-25T05:19:02;4.97;;;3.73;;
10201;SDS011;5143;42.584;23.164;2024-03-25T05:21:28;7.30;;;3.43;;
10201;SDS011;5143;42.584;23.164;2024-03-25T05:23:53;5.73;;;3.97;;
10201;SDS011;5143;42.584;23.164;2024-03-25T05:26:19;5.77;;;4.00;;
10201;SDS011;5143;42.584;23.164;2024-03-25T05:28:44;5.80;;;4.27;;
10201;SDS011;5143;42.584;23.164;2024-03-25T05:31:10;5.47;;;3.77;;
10201;SDS011;5143;42.584;23.164;2024-03-25T05:33:35;5.53;;;4.20;;
10201;SDS011;5143;42.584;23.164;2024-03-25T05:36:02;5.70;;;4.63;;
10201;SDS011;5143;42.584;23.164;2024-03-25T05:38:28;7.33;;;4.63;;
10201;SDS011;5143;42.584;23.164;2024-03-25T05:40:54;5.67;;;4.50;;
10201;SDS011;5143;42.584;23.164;2024-03-25T05:43:19;6.73;;;4.57;;
10201;SDS011;5143;42.584;23.164;2024-03-25T05:45:50;6.07;;;4.43;;
10201;SDS011;5143;42.584;23.164;2024-03-25T05:48:15;5.30;;;3.63;;
10201;SDS011;5143;42.584;23.164;2024-03-25T05:50:41;6.37;;;4.10;;
10201;SDS011;5143;42.584;23.164;2024-03-25T05:53:07;6.43;;;4.47;;
10201;SDS011;5143;42.584;23.164;2024-03-25T05:55:33;6.90;;;4.30;;
10201;SDS011;5143;42.584;23.164;2024-03-25T05:57:59;6.00;;;4.63;;
10201;SDS011;5143;42.584;23.164;2024-03-25T06:00:24;5.50;;;4.20;;
10201;SDS011;5143;42.584;23.164;2024-03-25T06:02:50;4.90;;;4.00;;
10201;SDS011;5143;42.584;23.164;2024-03-25T06:05:15;5.47;;;4.17;;
10201;SDS011;5143;42.584;23.164;2024-03-25T06:07:41;5.77;;;4.30;;
10201;SDS011;5143;42.584;23.164;2024-03-25T06:10:08;6.20;;;4.20;;
10201;SDS011;5143;42.584;23.164;2024-03-25T06:12:33;5.47;;;4.10;;
10201;SDS011;5143;42.584;23.164;2024-03-25T06:14:59;6.27;;;4.33;;
10201;SDS011;5143;42.584;23.164;2024-03-25T06:17:24;6.83;;;4.17;;
10201;SDS011;5143;42.584;23.164;2024-03-25T06:19:50;7.03;;;4.97;;
10201;SDS011;5143;42.584;23.164;2024-03-25T06:22:15;4.67;;;4.10;;
10201;SDS011;5143;42.584;23.164;2024-03-25T06:24:41;5.50;;;4.70;;
10201;SDS011;5143;42.584;23.164;2024-03-25T06:27:08;5.73;;;4.80;;
10201;SDS011;5143;42.584;23.164;2024-03-25T06:29:33;6.33;;;4.87;;
10201;SDS011;5143;42.584;23.164;2024-03-25T06:31:59;5.20;;;4.70;;
10201;SDS011;5143;42.584;23.164;2024-03-25T06:34:43;6.90;;;4.87;;
10201;SDS011;5143;42.584;23.164;2024-03-25T06:37:08;7.20;;;5.37;;
10201;SDS011;5143;42.584;23.164;2024-03-25T06:39:34;5.03;;;4.40;;
10201;SDS011;5143;42.584;23.164;2024-03-25T06:41:59;6.77;;;5.20;;
10201;SDS011;5143;42.584;23.164;2024-03-25T06:44:26;5.67;;;4.97;;
10201;SDS011;5143;42.584;23.164;2024-03-25T06:46:52;6.90;;;5.50;;
10201;SDS011;5143;42.584;23.164;2024-03-25T06:49:17;5.43;;;4.90;;
10201;SDS011;5143;42.584;23.164;2024-03-25T06:51:42;7.40;;;4.83;;
10201;SDS011;5143;42.584;23.164;2024-03-25T06:54:08;6.60;;;4.97;;
10201;SDS011;5143;42.584;23.164;2024-03-25T06:56:33;5.17;;;4.63;;
10201;SDS011;5143;42.584;23.164;2024-03-25T06:58:59;5.40;;;4.57;;
10201;SDS011;5143;42.584;23.164;2024-03-25T07:01:26;5.83;;;4.63;;
10201;SDS011;5143;42.584;23.164;2024-03-25T07:03:51;5.60;;;4.67;;
10201;SDS011;5143;42.584;23.164;2024-03-25T07:06:17;5.07;;;4.43;;
10201;SDS011;5143;42.584;23.164;2024-03-25T07:08:42;4.80;;;4.30;;
10201;SDS011;5143;42.584;23.164;2024-03-25T07:11:08;5.40;;;4.37;;
10201;SDS011;5143;42.584;23.164;2024-03-25T07:13:33;5.10;;;4.13;;
10201;SDS011;5143;42.584;23.164;2024-03-25T07:15:59;5.60;;;4.60;;
10201;SDS011;5143;42.584;23.164;2024-03-25T07:18:25;4.43;;;4.03;;
10201;SDS011;5143;42.584;23.164;2024-03-25T07:20:51;5.00;;;4.43;;
10201;SDS011;5143;42.584;23.164;2024-03-25T07:23:16;5.20;;;4.60;;
10201;SDS011;5143;42.584;23.164;2024-03-25T07:25:42;5.37;;;4.10;;
10201;SDS011;5143;42.584;23.164;2024-03-25T07:28:07;4.37;;;3.97;;
10201;SDS011;5143;42.584;23.164;2024-03-25T07:30:33;5.33;;;4.40;;
10201;SDS011;5143;42.584;23.164;2024-03-25T07:32:59;5.13;;;4.00;;
10201;SDS011;5143;42.584;23.164;2024-03-25T07:35:26;5.73;;;4.20;;
10201;SDS011;5143;42.584;23.164;2024-03-25T07:37:51;7.10;;;4.53;;
10201;SDS011;5143;42.584;23.164;2024-03-25T07:40:17;4.97;;;4.43;;
10201;SDS011;5143;42.584;23.164;2024-03-25T07:42:42;5.00;;;4.47;;
10201;SDS011;5143;42.584;23.164;2024-03-25T07:45:08;5.87;;;5.10;;
10201;SDS011;5143;42.584;23.164;2024-03-25T07:47:34;5.30;;;4.47;;
10201;SDS011;5143;42.584;23.164;2024-03-25T07:49:59;5.80;;;4.43;;
10201;SDS011;5143;42.584;23.164;2024-03-25T07:52:26;5.37;;;4.63;;
10201;SDS011;5143;42.584;23.164;2024-03-25T07:54:51;5.37;;;4.57;;
10201;SDS011;5143;42.584;23.164;2024-03-25T07:57:17;6.13;;;4.67;;
10201;SDS011;5143;42.584;23.164;2024-03-25T07:59:43;7.03;;;5.00;;
10201;SDS011;5143;42.584;23.164;2024-03-25T08:02:08;7.07;;;4.30;;
10201;SDS011;5143;42.584;23.164;2024-03-25T08:04:34;6.23;;;4.40;;
10201;SDS011;5143;42.584;23.164;2024-03-25T08:06:59;4.93;;;4.33;;
10201;SDS011;5143;42.584;23.164;2024-03-25T08:09:26;5.43;;;4.33;;
10201;SDS011;5143;42.584;23.164;2024-03-25T08:11:52;6.40;;;4.27;;
10201;SDS011;5143;42.584;23.164;2024-03-25T08:14:17;4.80;;;4.30;;
10201;SDS011;5143;42.584;23.164;2024-03-25T08:16:43;5.13;;;4.30;;
10201;SDS011;5143;42.584;23.164;2024-03-25T08:19:08;7.13;;;3.87;;
10201;SDS011;5143;42.584;23.164;2024-03-25T08:21:33;5.43;;;4.13;;
10201;SDS011;5143;42.584;23.164;2024-03-25T08:23:59;3.93;;;3.53;;
10201;SDS011;5143;42.584;23.164;2024-03-25T08:26:26;6.47;;;4.20;;
10201;SDS011;5143;42.584;23.164;2024-03-25T08:28:51;5.60;;;4.40;;
10201;SDS011;5143;42.584;23.164;2024-03-25T08:31:17;4.60;;;3.97;;
10201;SDS011;5143;42.584;23.164;2024-03-25T08:33:42;4.23;;;3.80;;
10201;SDS011;5143;42.584;23.164;2024-03-25T08:36:08;5.13;;;3.83;;
10201;SDS011;5143;42.584;23.164;2024-03-25T08:38:33;4.30;;;3.80;;
10201;SDS011;5143;42.584;23.164;2024-03-25T08:40:59;4.63;;;4.13;;
10201;SDS011;5143;42.584;23.164;2024-03-25T08:43:26;5.17;;;4.13;;
10201;SDS011;5143;42.584;23.164;2024-03-25T08:45:51;4.47;;;3.47;;
10201;SDS011;5143;42.584;23.164;2024-03-25T08:48:17;5.40;;;3.97;;
10201;SDS011;5143;42.584;23.164;2024-03-25T08:50:42;4.27;;;3.67;;
10201;SDS011;5143;42.584;23.164;2024-03-25T08:53:08;4.33;;;3.60;;
10201;SDS011;5143;42.584;23.164;2024-03-25T08:55:33;3.93;;;3.53;;
10201;SDS011;5143;42.584;23.164;2024-03-25T08:57:59;5.07;;;3.40;;
10201;SDS011;5143;42.584;23.164;2024-03-25T09:00:26;5.83;;;3.70;;
10201;SDS011;5143;42.584;23.164;2024-03-25T09:02:51;3.90;;;3.27;;
10201;SDS011;5143;42.584;23.164;2024-03-25T09:05:17;3.93;;;3.53;;
10201;SDS011;5143;42.584;23.164;2024-03-25T09:07:43;4.63;;;3.30;;
10201;SDS011;5143;42.584;23.164;2024-03-25T09:10:09;3.73;;;3.33;;
10201;SDS011;5143;42.584;23.164;2024-03-25T09:12:53;4.90;;;3.67;;
10201;SDS011;5143;42.584;23.164;2024-03-25T09:15:18;4.83;;;3.57;;
10201;SDS011;5143;42.584;23.164;2024-03-25T09:17:45;4.13;;;3.70;;
10201;SDS011;5143;42.584;23.164;2024-03-25T09:20:11;4.80;;;3.93;;
10201;SDS011;5143;42.584;23.164;2024-03-25T09:22:37;4.83;;;3.73;;
10201;SDS011;5143;42.584;23.164;2024-03-25T09:25:03;6.20;;;3.90;;
10201;SDS011;5143;42.584;23.164;2024-03-25T09:27:28;3.70;;;3.00;;
10201;SDS011;5143;42.584;23.164;2024-03-25T09:29:54;4.63;;;3.83;;
10201;SDS011;5143;42.584;23.164;2024-03-25T09:32:19;4.60;;;3.70;;
10201;SDS011;5143;42.584;23.164;2024-03-25T09:34:46;4.10;;;3.23;;
10201;SDS011;5143;42.584;23.164;2024-03-25T09:37:12;4.17;;;3.33;;
10201;SDS011;5143;42.584;23.164;2024-03-25T09:39:37;6.23;;;3.80;;
10201;SDS011;5143;42.584;23.164;2024-03-25T09:42:03;4.53;;;3.80;;
10201;SDS011;5143;42.584;23.164;2024-03-25T09:44:33;4.90;;;3.53;;
10201;SDS011;5143;42.584;23.164;2024-03-25T09:46:58;4.73;;;4.03;;
10201;SDS011;5143;42.584;23.164;2024-03-25T09:49:24;7.00;;;3.70;;
10201;SDS011;5143;42.584;23.164;2024-03-25T09:51:52;4.17;;;3.77;;
10201;SDS011;5143;42.584;23.164;2024-03-25T09:54:17;6.37;;;4.77;;
10201;SDS011;5143;42.584;23.164;2024-03-25T09:56:43;4.20;;;3.80;;
10201;SDS011;5143;42.584;23.164;2024-03-25T09:59:09;4.53;;;3.63;;
10201;SDS011;5143;42.584;23.164;2024-03-25T10:01:34;7.20;;;3.90;;
10201;SDS011;5143;42.584;23.164;2024-03-25T10:04:00;3.67;;;3.37;;
10201;SDS011;5143;42.584;23.164;2024-03-25T10:06:25;4.10;;;3.70;;
10201;SDS011;5143;42.584;23.164;2024-03-25T10:08:54;3.70;;;3.30;;
10201;SDS011;5143;42.584;23.164;2024-03-25T10:11:19;4.67;;;3.20;;
10201;SDS011;5143;42.584;23.164;2024-03-25T10:13:45;3.30;;;2.90;;
10201;SDS011;5143;42.584;23.164;2024-03-25T10:16:11;8.30;;;3.10;;
10201;SDS011;5143;42.584;23.164;2024-03-25T10:18:36;4.27;;;3.53;;
10201;SDS011;5143;42.584;23.164;2024-03-25T10:21:02;3.60;;;3.20;;
10201;SDS011;5143;42.584;23.164;2024-03-25T10:23:27;6.50;;;3.10;;
10201;SDS011;5143;42.584;23.164;2024-03-25T10:25:54;3.40;;;2.97;;
10201;SDS011;5143;42.584;23.164;2024-03-25T10:28:20;4.20;;;3.30;;
10201;SDS011;5143;42.584;23.164;2024-03-25T10:30:46;4.00;;;2.97;;
10201;SDS011;5143;42.584;23.164;2024-03-25T10:33:12;2.83;;;2.50;;
10201;SDS011;5143;42.584;23.164;2024-03-25T10:35:38;4.33;;;2.57;;
10201;SDS011;5143;42.584;23.164;2024-03-25T10:38:04;5.53;;;3.30;;
10201;SDS011;5143;42.584;23.164;2024-03-25T10:40:30;8.43;;;2.90;;
10201;SDS011;5143;42.584;23.164;2024-03-25T10:43:00;3.60;;;2.80;;
10201;SDS011;5143;42.584;23.164;2024-03-25T10:45:25;3.07;;;2.77;;
10201;SDS011;5143;42.584;23.164;2024-03-25T10:47:52;2.83;;;2.37;;
10201;SDS011;5143;42.584;23.164;2024-03-25T10:50:17;2.67;;;2.20;;
10201;SDS011;5143;42.584;23.164;2024-03-25T10:52:45;2.87;;;2.57;;
10201;SDS011;5143;42.584;23.164;2024-03-25T10:55:10;3.40;;;2.80;;
10201;SDS011;5143;42.584;23.164;2024-03-25T10:57:37;5.67;;;2.43;;
10201;SDS011;5143;42.584;23.164;2024-03-25T11:00:04;3.53;;;2.50;;
10201;SDS011;5143;42.584;23.164;2024-03-25T11:02:30;4.90;;;2.80;;
10201;SDS011;5143;42.584;23.164;2024-03-25T11:04:56;4.63;;;2.80;;
10201;SDS011;5143;42.584;23.164;2024-03-25T11:07:27;3.00;;;2.50;;
10201;SDS011;5143;42.584;23.164;2024-03-25T11:09:53;15.30;;;2.60;;
10201;SDS011;5143;42.584;23.164;2024-03-25T11:12:31;3.80;;;2.93;;
10201;SDS011;5143;42.584;23.164;2024-03-25T11:14:57;5.80;;;2.80;;
10201;SDS011;5143;42.584;23.164;2024-03-25T11:17:24;3.53;;;2.20;;
10201;SDS011;5143;42.584;23.164;2024-03-25T11:19:49;4.67;;;2.90;;
10201;SDS011;5143;42.584;23.164;2024-03-25T11:22:15;2.30;;;2.10;;
10201;SDS011;5143;42.584;23.164;2024-03-25T11:24:43;2.40;;;2.10;;
10201;SDS011;5143;42.584;23.164;2024-03-25T11:27:09;2.80;;;2.20;;
10201;SDS011;5143;42.584;23.164;2024-03-25T11:29:34;3.00;;;2.27;;
10201;SDS011;5143;42.584;23.164;2024-03-25T11:32:02;2.90;;;2.30;;
10201;SDS011;5143;42.584;23.164;2024-03-25T11:34:30;3.10;;;2.47;;
10201;SDS011;5143;42.584;23.164;2024-03-25T11:36:55;2.30;;;2.10;;
10201;SDS011;5143;42.584;23.164;2024-03-25T11:39:21;3.20;;;2.40;;
10201;SDS011;5143;42.584;23.164;2024-03-25T11:41:46;2.23;;;1.97;;
10201;SDS011;5143;42.584;23.164;2024-03-25T11:44:12;1.93;;;1.73;;
10201;SDS011;5143;42.584;23.164;2024-03-25T11:46:38;3.47;;;1.90;;
10201;SDS011;5143;42.584;23.164;2024-03-25T11:49:04;3.73;;;2.47;;
10201;SDS011;5143;42.584;23.164;2024-03-25T11:51:32;4.20;;;2.30;;
10201;SDS011;5143;42.584;23.164;2024-03-25T11:53:58;3.20;;;2.13;;
10201;SDS011;5143;42.584;23.164;2024-03-25T11:56:24;3.47;;;2.30;;
10201;SDS011;5143;42.584;23.164;2024-03-25T11:58:49;2.60;;;2.40;;
10201;SDS011;5143;42.584;23.164;2024-03-25T12:01:15;2.40;;;2.20;;
10201;SDS011;5143;42.584;23.164;2024-03-25T12:03:40;2.27;;;1.47;;
10201;SDS011;5143;42.584;23.164;2024-03-25T12:06:06;4.37;;;1.97;;
10201;SDS011;5143;42.584;23.164;2024-03-25T12:08:33;2.53;;;1.50;;
10201;SDS011;5143;42.584;23.164;2024-03-25T12:10:59;4.00;;;1.80;;
10201;SDS011;5143;42.584;23.164;2024-03-25T12:13:43;2.00;;;1.60;;
10201;SDS011;5143;42.584;23.164;2024-03-25T12:16:08;2.17;;;1.60;;
10201;SDS011;5143;42.584;23.164;2024-03-25T12:18:34;2.37;;;1.73;;
10201;SDS011;5143;42.584;23.164;2024-03-25T12:21:00;1.90;;;1.47;;
10201;SDS011;5143;42.584;23.164;2024-03-25T12:23:28;5.37;;;1.63;;
10201;SDS011;5143;42.584;23.164;2024-03-25T12:25:55;1.50;;;1.30;;
10201;SDS011;5143;42.584;23.164;2024-03-25T12:28:20;2.87;;;1.60;;
10201;SDS011;5143;42.584;23.164;2024-03-25T12:30:52;2.23;;;1.73;;
10201;SDS011;5143;42.584;23.164;2024-03-25T12:33:23;2.90;;;1.90;;
10201;SDS011;5143;42.584;23.164;2024-03-25T12:35:52;2.50;;;1.60;;
10201;SDS011;5143;42.584;23.164;2024-03-25T12:38:21;1.90;;;1.70;;
10201;SDS011;5143;42.584;23.164;2024-03-25T12:40:47;2.23;;;1.60;;
10201;SDS011;5143;42.584;23.164;2024-03-25T12:43:14;2.17;;;1.27;;
10201;SDS011;5143;42.584;23.164;2024-03-25T12:45:42;4.53;;;1.57;;
10201;SDS011;5143;42.584;23.164;2024-03-25T12:48:11;1.67;;;1.53;;
10201;SDS011;5143;42.584;23.164;2024-03-25T12:50:36;1.70;;;1.53;;
10201;SDS011;5143;42.584;23.164;2024-03-25T12:53:02;1.87;;;1.50;;
10201;SDS011;5143;42.584;23.164;2024-03-25T12:55:28;2.43;;;1.57;;
10201;SDS011;5143;42.584;23.164;2024-03-25T12:57:53;3.33;;;1.30;;
10201;SDS011;5143;42.584;23.164;2024-03-25T13:00:20;2.10;;;1.40;;
10201;SDS011;5143;42.584;23.164;2024-03-25T13:02:46;3.43;;;1.53;;
10201;SDS011;5143;42.584;23.164;2024-03-25T13:05:11;1.57;;;1.37;;
10201;SDS011;5143;42.584;23.164;2024-03-25T13:07:39;9.77;;;1.93;;
10201;SDS011;5143;42.584;23.164;2024-03-25T13:10:05;1.80;;;1.33;;
10201;SDS011;5143;42.584;23.164;2024-03-25T13:12:30;3.77;;;1.50;;
10201;SDS011;5143;42.584;23.164;2024-03-25T13:14:56;4.17;;;1.43;;
10201;SDS011;5143;42.584;23.164;2024-03-25T13:17:23;1.97;;;1.30;;
10201;SDS011;5143;42.584;23.164;2024-03-25T13:19:48;1.77;;;1.40;;
10201;SDS011;5143;42.584;23.164;2024-03-25T13:22:14;6.77;;;1.50;;
10201;SDS011;5143;42.584;23.164;2024-03-25T13:24:39;2.57;;;1.57;;
10201;SDS011;5143;42.584;23.164;2024-03-25T13:27:05;3.17;;;1.57;;
10201;SDS011;5143;42.584;23.164;2024-03-25T13:29:30;3.67;;;1.63;;
10201;SDS011;5143;42.584;23.164;2024-03-25T13:31:56;2.80;;;1.50;;
10201;SDS011;5143;42.584;23.164;2024-03-25T13:34:23;1.87;;;1.43;;
10201;SDS011;5143;42.584;23.164;2024-03-25T13:36:49;1.47;;;1.23;;
10201;SDS011;5143;42.584;23.164;2024-03-25T13:39:14;1.20;;;1.10;;
10201;SDS011;5143;42.584;23.164;2024-03-25T13:41:39;2.63;;;1.50;;
10201;SDS011;5143;42.584;23.164;2024-03-25T13:44:05;1.83;;;1.30;;
10201;SDS011;5143;42.584;23.164;2024-03-25T13:46:30;2.73;;;1.37;;
10201;SDS011;5143;42.584;23.164;2024-03-25T13:48:56;3.27;;;1.40;;
10201;SDS011;5143;42.584;23.164;2024-03-25T13:51:23;1.60;;;1.20;;
10201;SDS011;5143;42.584;23.164;2024-03-25T13:53:48;1.20;;;1.00;;
10201;SDS011;5143;42.584;23.164;2024-03-25T13:56:14;2.73;;;1.30;;
10201;SDS011;5143;42.584;23.164;2024-03-25T13:58:39;1.60;;;1.30;;
10201;SDS011;5143;42.584;23.164;2024-03-25T14:01:05;2.10;;;1.40;;
10201;SDS011;5143;42.584;23.164;2024-03-25T14:03:33;3.17;;;1.40;;
10201;SDS011;5143;42.584;23.164;2024-03-25T14:05:58;3.20;;;1.23;;
10201;SDS011;5143;42.584;23.164;2024-03-25T14:08:25;2.67;;;1.10;;
10201;SDS011;5143;42.584;23.164;2024-03-25T14:10:56;1.40;;;1.03;;
10201;SDS011;5143;42.584;23.164;2024-03-25T14:13:22;3.83;;;1.30;;
10201;SDS011;5143;42.584;23.164;2024-03-25T14:15:48;1.37;;;1.07;;
10201;SDS011;5143;42.584;23.164;2024-03-25T14:18:14;3.63;;;1.30;;
10201;SDS011;5143;42.584;23.164;2024-03-25T14:20:39;1.53;;;1.10;;
10201;SDS011;5143;42.584;23.164;2024-03-25T14:23:05;1.10;;;0.90;;
10201;SDS011;5143;42.584;23.164;2024-03-25T14:25:32;1.27;;;1.10;;
10201;SDS011;5143;42.584;23.164;2024-03-25T14:27:57;1.07;;;0.90;;
10201;SDS011;5143;42.584;23.164;2024-03-25T14:30:23;6.27;;;1.30;;
10201;SDS011;5143;42.584;23.164;2024-03-25T14:32:48;1.67;;;1.00;;
10201;SDS011;5143;42.584;23.164;2024-03-25T14:35:16;1.10;;;0.90;;
10201;SDS011;5143;42.584;23.164;2024-03-25T14:37:42;4.80;;;1.20;;
10201;SDS011;5143;42.584;23.164;2024-03-25T14:40:08;1.90;;;1.00;;
10201;SDS011;5143;42.584;23.164;2024-03-25T14:42:35;1.40;;;1.10;;